createdAt,value
2022-12-08T00:01:34.134Z,20.40
2022-12-08T00:04:04.078Z,20.10
2022-12-08T00:06:56.006Z,17.10
2022-12-08T00:09:24.026Z,16.40
2022-12-08T00:12:02.804Z,16.50
2022-12-08T00:14:34.148Z,21.70
2022-12-08T00:17:03.533Z,18.70
2022-12-08T00:19:32.078Z,16.00
2022-12-08T00:22:00.047Z,16.80
2022-12-08T00:24:32.364Z,17.00
2022-12-08T00:27:00.875Z,17.30
2022-12-08T00:29:28.939Z,17.80
2022-12-08T00:31:57.006Z,15.60
2022-12-08T00:34:24.998Z,15.00
2022-12-08T00:36:52.962Z,16.10
2022-12-08T00:39:20.895Z,16.90
2022-12-08T00:42:07.290Z,19.00
2022-12-08T00:44:35.226Z,18.00
2022-12-08T00:47:03.062Z,15.50
2022-12-08T00:49:30.955Z,17.70
2022-12-08T00:51:58.880Z,27.10
2022-12-08T00:54:26.824Z,17.40
2022-12-08T00:56:54.711Z,19.10
2022-12-08T00:59:22.674Z,15.50
2022-12-08T01:01:50.808Z,14.50
2022-12-08T01:04:19.914Z,14.50
2022-12-08T01:06:48.588Z,16.40
2022-12-08T01:09:17.863Z,15.50
2022-12-08T01:11:46.271Z,15.10
2022-12-08T01:14:14.704Z,18.20
2022-12-08T01:16:43.760Z,15.30
2022-12-08T01:19:13.969Z,16.10
2022-12-08T01:21:43.000Z,16.30
2022-12-08T01:24:16.257Z,14.50
2022-12-08T01:26:44.767Z,15.60
2022-12-08T01:29:13.219Z,15.50
2022-12-08T01:31:41.201Z,16.90
2022-12-08T01:34:10.655Z,13.00
2022-12-08T01:36:39.230Z,13.50
2022-12-08T01:39:10.646Z,15.30
2022-12-08T01:41:39.567Z,14.30
2022-12-08T01:44:08.419Z,13.70
2022-12-08T01:46:39.623Z,14.00
2022-12-08T01:49:35.287Z,14.40
2022-12-08T01:52:14.797Z,14.80
2022-12-08T01:54:49.481Z,13.80
2022-12-08T01:57:24.077Z,15.50
2022-12-08T02:02:29.602Z,16.70
2022-12-08T02:04:57.670Z,20.00
2022-12-08T02:07:25.610Z,16.00
2022-12-08T02:09:54.105Z,18.80
2022-12-08T02:12:22.163Z,14.60
2022-12-08T02:14:50.479Z,15.80
2022-12-08T02:18:07.608Z,15.50
2022-12-08T02:20:35.477Z,14.70
2022-12-08T02:23:15.496Z,14.90
2022-12-08T02:26:07.859Z,14.90
2022-12-08T02:28:56.706Z,16.70
2022-12-08T02:31:43.129Z,17.00
2022-12-08T02:34:29.420Z,14.40
2022-12-08T02:37:19.203Z,13.70
2022-12-08T02:40:03.113Z,19.80
2022-12-08T02:43:03.869Z,18.70
2022-12-08T02:45:39.734Z,14.80
2022-12-08T02:48:09.203Z,14.50
2022-12-08T02:50:37.112Z,13.60
2022-12-08T02:55:55.538Z,14.70
2022-12-08T02:59:02.328Z,13.30
2022-12-08T03:01:49.040Z,14.40
2022-12-08T03:04:46.147Z,18.00
2022-12-08T03:07:28.178Z,15.10
2022-12-08T03:10:03.125Z,14.90
2022-12-08T03:12:42.209Z,15.10
2022-12-08T03:15:14.426Z,15.50
2022-12-08T03:17:47.376Z,15.70
2022-12-08T03:20:23.978Z,17.30
2022-12-08T03:22:55.675Z,15.00
2022-12-08T03:25:30.464Z,15.50
2022-12-08T03:27:59.756Z,16.20
2022-12-08T03:30:32.155Z,17.30
2022-12-08T03:33:27.583Z,15.80
2022-12-08T03:35:55.795Z,15.30
2022-12-08T03:38:23.768Z,19.10
2022-12-08T03:41:10.136Z,16.90
2022-12-08T03:43:38.064Z,21.00
2022-12-08T03:46:06.019Z,25.40
2022-12-08T03:48:33.900Z,16.80
2022-12-08T03:51:01.785Z,19.60
2022-12-08T03:53:29.694Z,27.20
2022-12-08T03:55:57.579Z,21.60
2022-12-08T03:58:25.587Z,21.90
2022-12-08T04:00:53.556Z,20.90
2022-12-08T04:03:21.495Z,20.10
2022-12-08T04:05:49.413Z,21.30
2022-12-08T04:08:17.322Z,21.20
2022-12-08T04:10:45.257Z,24.30
2022-12-08T04:13:13.138Z,22.90
2022-12-08T04:15:46.249Z,24.00
2022-12-08T04:18:14.982Z,24.00
2022-12-08T04:20:44.402Z,21.40
2022-12-08T04:23:12.975Z,24.60
2022-12-08T04:25:41.059Z,25.40
2022-12-08T04:28:09.049Z,21.80
2022-12-08T04:30:36.908Z,21.50
2022-12-08T04:33:04.857Z,24.30
2022-12-08T04:35:32.887Z,22.10
2022-12-08T04:38:00.835Z,26.40
2022-12-08T04:40:28.773Z,25.10
2022-12-08T04:42:56.657Z,27.90
2022-12-08T04:45:24.627Z,27.50
2022-12-08T04:47:52.543Z,30.70
2022-12-08T04:50:20.442Z,30.40
2022-12-08T04:52:48.396Z,26.60
2022-12-08T04:55:16.434Z,27.50
2022-12-08T04:57:44.361Z,29.70
2022-12-08T05:00:13.734Z,31.30
2022-12-08T05:02:41.813Z,29.50
2022-12-08T05:05:10.004Z,32.00
2022-12-08T05:07:38.069Z,35.60
2022-12-08T05:10:07.127Z,28.30
2022-12-08T05:12:35.220Z,26.40
2022-12-08T05:15:04.087Z,29.40
2022-12-08T05:17:31.940Z,27.90
2022-12-08T05:19:59.861Z,28.40
2022-12-08T05:22:27.909Z,32.90
2022-12-08T05:24:55.765Z,29.10
2022-12-08T05:27:23.930Z,28.10
2022-12-08T05:29:52.105Z,24.80
2022-12-08T05:32:20.193Z,28.50
2022-12-08T05:34:48.172Z,27.20
2022-12-08T05:37:16.110Z,30.80
2022-12-08T05:39:44.031Z,32.10
2022-12-08T05:42:11.923Z,30.20
2022-12-08T05:44:39.804Z,25.70
2022-12-08T05:47:07.740Z,24.60
2022-12-08T05:49:35.621Z,23.40
2022-12-08T05:52:03.781Z,21.60
2022-12-08T05:54:31.674Z,24.20
2022-12-08T05:57:00.091Z,24.70
2022-12-08T05:59:27.927Z,27.50
2022-12-08T06:01:55.854Z,28.70
2022-12-08T06:04:23.767Z,31.60
2022-12-08T06:06:51.664Z,32.50
2022-12-08T06:09:19.703Z,29.20
2022-12-08T06:11:47.737Z,32.20
2022-12-08T06:14:15.631Z,29.50
2022-12-08T06:16:43.651Z,29.20
2022-12-08T06:19:11.698Z,24.70
2022-12-08T06:21:39.653Z,21.50
2022-12-08T06:24:07.849Z,24.50
2022-12-08T06:26:36.224Z,23.70
2022-12-08T06:29:05.068Z,26.60
2022-12-08T06:31:33.123Z,22.90
2022-12-08T06:34:01.072Z,25.10
2022-12-08T06:36:29.367Z,22.70
2022-12-08T06:38:58.052Z,24.20
2022-12-08T06:41:26.852Z,22.30
2022-12-08T06:43:58.575Z,19.20
2022-12-08T06:46:26.703Z,18.90
2022-12-08T06:48:54.636Z,18.80
2022-12-08T06:51:23.545Z,18.80
2022-12-08T06:53:51.496Z,19.90
2022-12-08T06:56:20.535Z,19.80
2022-12-08T06:58:52.411Z,22.60
2022-12-08T07:01:21.243Z,23.20
2022-12-08T07:03:49.287Z,26.80
2022-12-08T07:06:20.941Z,28.80
2022-12-08T07:08:48.927Z,34.00
2022-12-08T07:11:21.532Z,40.90
2022-12-08T07:13:51.213Z,42.40
2022-12-08T07:16:19.381Z,48.20
2022-12-08T07:18:47.448Z,44.20
2022-12-08T07:21:16.635Z,38.80
2022-12-08T07:23:54.356Z,40.20
2022-12-08T07:26:26.854Z,46.20
2022-12-08T07:28:54.875Z,48.60
2022-12-08T07:31:25.216Z,50.20
2022-12-08T07:33:53.652Z,52.60
2022-12-08T07:36:22.489Z,30.10
2022-12-08T07:38:53.670Z,53.10
2022-12-08T07:41:27.291Z,45.90
2022-12-08T07:43:59.094Z,45.20
2022-12-08T07:46:27.234Z,43.00
2022-12-08T07:48:55.527Z,52.70
2022-12-08T07:51:25.077Z,56.90
2022-12-08T07:53:54.883Z,75.10
2022-12-08T07:56:23.870Z,76.80
2022-12-08T07:58:51.815Z,70.40
2022-12-08T08:01:27.971Z,64.50
2022-12-08T08:03:58.134Z,67.40
2022-12-08T08:06:26.054Z,52.20
2022-12-08T08:08:54.747Z,47.50
2022-12-08T08:11:23.118Z,49.00
2022-12-08T08:13:51.641Z,56.50
2022-12-08T08:16:20.477Z,49.70
2022-12-08T08:18:52.403Z,50.90
2022-12-08T08:21:44.405Z,51.80
2022-12-08T08:24:09.568Z,46.00
2022-12-08T08:26:38.013Z,41.60
2022-12-08T08:29:06.020Z,34.90
2022-12-08T08:31:34.000Z,32.20
2022-12-08T08:34:06.356Z,31.90
2022-12-08T08:36:34.823Z,32.20
2022-12-08T08:39:04.137Z,29.90
2022-12-08T08:41:32.128Z,32.30
2022-12-08T08:44:00.092Z,30.80
2022-12-08T08:46:28.078Z,29.50
2022-12-08T08:48:56.733Z,21.20
2022-12-08T08:51:24.816Z,26.30
2022-12-08T08:53:52.776Z,20.70
2022-12-08T08:56:20.848Z,21.90
2022-12-08T08:58:49.808Z,26.00
2022-12-08T09:01:21.239Z,19.40
2022-12-08T09:03:49.514Z,22.10
2022-12-08T09:06:18.741Z,20.90
2022-12-08T09:08:46.856Z,19.10
2022-12-08T09:11:15.524Z,16.50
2022-12-08T09:13:43.460Z,16.50
2022-12-08T09:16:12.694Z,16.00
2022-12-08T09:18:40.791Z,18.20
2022-12-08T09:21:16.487Z,54.50
2022-12-08T09:23:44.472Z,23.60
2022-12-08T09:26:12.410Z,25.50
2022-12-08T09:28:46.193Z,26.10
2022-12-08T09:31:14.744Z,25.50
2022-12-08T09:33:43.230Z,22.50
2022-12-08T09:36:11.646Z,28.70
2022-12-08T09:38:43.188Z,23.90
2022-12-08T09:41:52.143Z,29.70
2022-12-08T09:44:59.877Z,22.40
2022-12-08T09:47:44.070Z,20.90
2022-12-08T09:50:14.677Z,27.20
2022-12-08T09:53:01.554Z,21.70
2022-12-08T09:55:39.160Z,23.90
2022-12-08T09:58:17.640Z,23.50
2022-12-08T10:00:45.702Z,16.90
2022-12-08T10:03:16.805Z,12.90
2022-12-08T10:05:54.061Z,16.60
2022-12-08T10:08:32.349Z,14.80
2022-12-08T10:11:11.326Z,19.80
2022-12-08T10:13:54.780Z,30.60
2022-12-08T10:16:34.423Z,18.90
2022-12-08T10:19:17.929Z,17.60
2022-12-08T10:21:46.091Z,14.90
2022-12-08T10:24:23.601Z,17.10
2022-12-08T10:26:51.649Z,17.90
2022-12-08T10:29:19.571Z,35.70
2022-12-08T10:31:47.671Z,23.20
2022-12-08T10:34:24.245Z,23.90
2022-12-08T10:37:22.087Z,78.50
2022-12-08T10:39:59.267Z,18.90
2022-12-08T10:42:35.301Z,15.30
2022-12-08T10:45:09.181Z,15.60
2022-12-08T10:47:44.586Z,15.80
2022-12-08T10:50:23.567Z,20.40
2022-12-08T10:53:08.660Z,19.40
2022-12-08T10:56:08.943Z,17.60
2022-12-08T10:58:41.053Z,17.40
2022-12-08T11:01:17.331Z,15.60
2022-12-08T11:03:49.740Z,17.00
2022-12-08T11:06:34.528Z,25.80
2022-12-08T11:09:04.754Z,20.40
2022-12-08T11:11:54.400Z,17.10
2022-12-08T11:14:38.102Z,16.60
2022-12-08T11:17:09.521Z,22.40
2022-12-08T11:19:39.451Z,23.40
2022-12-08T11:22:40.136Z,16.40
2022-12-08T11:25:07.996Z,21.30
2022-12-08T11:27:38.275Z,16.20
2022-12-08T11:30:15.821Z,19.40
2022-12-08T11:32:46.580Z,16.20
2022-12-08T11:35:42.760Z,19.20
2022-12-08T11:38:32.055Z,17.60
2022-12-08T11:41:36.101Z,18.50
2022-12-08T11:44:28.166Z,20.00
2022-12-08T11:47:01.028Z,18.40
2022-12-08T11:49:41.120Z,19.10
2022-12-08T11:52:24.355Z,236.50
2022-12-08T11:55:01.381Z,54.00
2022-12-08T11:57:30.347Z,26.90
2022-12-08T11:59:58.815Z,94.70
2022-12-08T12:02:30.973Z,44.90
2022-12-08T12:05:07.421Z,25.40
2022-12-08T12:07:47.513Z,21.10
2022-12-08T12:10:36.984Z,18.90
2022-12-08T12:13:30.826Z,16.90
2022-12-08T12:15:58.786Z,16.50
2022-12-08T12:18:40.611Z,17.00
2022-12-08T12:21:19.540Z,16.50
2022-12-08T12:24:23.819Z,20.80
2022-12-08T12:27:43.874Z,22.80
2022-12-08T12:30:31.948Z,19.30
2022-12-08T12:33:02.408Z,19.70
2022-12-08T12:35:36.051Z,17.90
2022-12-08T12:38:37.486Z,14.70
2022-12-08T12:41:08.350Z,23.80
2022-12-08T12:43:38.639Z,24.80
2022-12-08T12:46:27.603Z,28.50
2022-12-08T12:49:34.386Z,22.10
2022-12-08T12:52:02.352Z,15.70
2022-12-08T12:54:30.458Z,23.10
2022-12-08T12:57:16.407Z,19.80
2022-12-08T12:59:53.411Z,20.30
2022-12-08T13:02:30.961Z,28.90
2022-12-08T13:05:01.776Z,21.90
2022-12-08T13:07:36.203Z,28.10
2022-12-08T13:10:16.388Z,19.30
2022-12-08T13:12:45.764Z,16.80
2022-12-08T13:15:20.931Z,17.00
2022-12-08T13:17:49.478Z,13.40
2022-12-08T13:20:24.417Z,14.50
2022-12-08T13:23:27.613Z,14.50
2022-12-08T13:26:15.064Z,15.00
2022-12-08T13:29:04.135Z,19.90
2022-12-08T13:31:59.859Z,54.80
2022-12-08T13:34:41.760Z,16.10
2022-12-08T13:37:13.637Z,19.80
2022-12-08T13:40:16.326Z,21.90
2022-12-08T13:42:51.154Z,26.50
2022-12-08T13:45:59.179Z,19.00
2022-12-08T13:49:03.309Z,17.20
2022-12-08T13:53:34.181Z,22.40
2022-12-08T13:57:14.281Z,19.70
2022-12-08T13:59:45.807Z,17.30
2022-12-08T14:02:47.084Z,17.40
2022-12-08T14:05:40.742Z,13.80
2022-12-08T14:08:57.913Z,19.50
2022-12-08T14:11:34.398Z,16.80
2022-12-08T14:14:53.758Z,14.80
2022-12-08T14:17:16.351Z,12.60
2022-12-08T14:19:53.308Z,15.70
2022-12-08T14:22:21.323Z,16.20
2022-12-08T14:24:53.965Z,15.50
2022-12-08T14:27:25.100Z,29.60
2022-12-08T14:29:58.731Z,18.10
2022-12-08T14:32:31.544Z,17.90
2022-12-08T14:35:08.654Z,17.50
2022-12-08T14:37:41.502Z,24.80
2022-12-08T14:40:22.697Z,30.00
2022-12-08T14:43:08.707Z,39.40
2022-12-08T14:45:42.678Z,44.50
2022-12-08T14:48:23.567Z,42.70
2022-12-08T14:51:21.091Z,69.90
2022-12-08T14:53:54.882Z,46.40
2022-12-08T14:56:26.897Z,48.40
2022-12-08T14:59:16.691Z,45.20
2022-12-08T15:01:48.183Z,37.40
2022-12-08T15:04:24.554Z,37.30
2022-12-08T15:06:59.810Z,36.70
2022-12-08T15:09:35.088Z,38.40
2022-12-08T15:12:26.363Z,44.30
2022-12-08T15:14:57.156Z,43.00
2022-12-08T15:17:40.336Z,47.60
2022-12-08T15:20:34.868Z,49.70
2022-12-08T15:23:04.364Z,53.60
2022-12-08T15:25:32.712Z,50.10
2022-12-08T15:28:02.688Z,51.30
2022-12-08T15:30:31.329Z,48.70
2022-12-08T15:32:59.406Z,51.10
2022-12-08T15:35:28.004Z,52.40
2022-12-08T15:37:55.950Z,54.20
2022-12-08T15:40:26.066Z,54.10
2022-12-08T15:42:54.316Z,58.20
2022-12-08T15:45:30.857Z,61.70
2022-12-08T15:47:58.755Z,64.00
2022-12-08T15:50:26.738Z,66.40
2022-12-08T15:52:54.667Z,59.50
2022-12-08T15:55:22.818Z,63.00
2022-12-08T16:00:57.963Z,91.90
2022-12-08T16:09:44.389Z,53.10
2022-12-08T16:13:13.856Z,42.20
2022-12-08T16:15:59.033Z,40.10
2022-12-08T16:18:25.053Z,35.80
2022-12-08T16:21:22.732Z,28.10
2022-12-08T16:24:08.897Z,32.40
2022-12-08T16:29:55.426Z,38.00
2022-12-08T16:32:24.253Z,34.60
2022-12-08T16:34:52.696Z,29.40
2022-12-08T16:37:26.229Z,30.60
2022-12-08T16:39:57.120Z,30.90
2022-12-08T16:42:52.138Z,36.70
2022-12-08T16:45:23.919Z,35.40
2022-12-08T16:48:00.000Z,28.50
2022-12-08T16:50:34.937Z,28.20
2022-12-08T16:53:09.282Z,23.60
2022-12-08T16:55:37.214Z,27.10
2022-12-08T16:58:06.113Z,22.00
2022-12-08T17:00:37.562Z,22.40
2022-12-08T17:03:10.480Z,19.70
2022-12-08T17:05:41.281Z,18.70
2022-12-08T17:08:09.761Z,19.70
2022-12-08T17:10:39.505Z,17.70
2022-12-08T17:13:07.899Z,15.90
2022-12-08T17:15:35.872Z,14.40
2022-12-08T17:18:04.017Z,16.80
2022-12-08T17:20:34.161Z,16.00
2022-12-08T17:23:02.154Z,16.00
2022-12-08T17:25:30.066Z,16.60
2022-12-08T17:27:57.957Z,17.30
2022-12-08T17:30:25.931Z,16.30
2022-12-08T17:32:54.500Z,19.30
2022-12-08T17:35:22.483Z,16.80
2022-12-08T17:37:50.485Z,18.10
2022-12-08T17:40:28.007Z,24.20
2022-12-08T17:43:21.234Z,32.70
2022-12-08T17:45:53.933Z,42.40
2022-12-08T17:48:21.976Z,37.30
2022-12-08T17:50:49.961Z,46.90
2022-12-08T17:53:17.936Z,46.10
2022-12-08T17:55:57.134Z,47.30
2022-12-08T17:58:25.972Z,41.40
2022-12-08T18:01:00.889Z,31.00
2022-12-08T18:03:28.905Z,39.40
2022-12-08T18:06:07.244Z,30.50
2022-12-08T18:08:35.829Z,28.80
2022-12-08T18:11:14.192Z,31.90
2022-12-08T18:13:48.751Z,24.50
2022-12-08T18:18:46.042Z,59.40
2022-12-08T18:21:16.365Z,63.10
2022-12-08T18:23:49.625Z,62.00
2022-12-08T18:26:17.712Z,65.20
2022-12-08T18:28:45.635Z,56.20
2022-12-08T18:31:17.696Z,56.10
2022-12-08T18:33:46.981Z,48.50
2022-12-08T18:36:23.809Z,51.80
2022-12-08T18:38:53.230Z,37.40
2022-12-08T18:41:28.471Z,50.30
2022-12-08T18:44:04.066Z,59.00
2022-12-08T18:46:32.169Z,56.70
2022-12-08T18:49:00.247Z,57.60
2022-12-08T18:51:28.335Z,68.70
2022-12-08T18:53:58.501Z,60.90
2022-12-08T18:56:34.498Z,58.50
2022-12-08T18:59:14.620Z,53.30
2022-12-08T19:01:42.743Z,41.70
2022-12-08T19:06:58.827Z,51.80
2022-12-08T19:09:30.196Z,43.80
2022-12-08T19:11:58.427Z,49.90
2022-12-08T19:14:28.407Z,43.80
2022-12-08T19:16:57.846Z,42.60
2022-12-08T19:19:36.901Z,36.60
2022-12-08T19:22:04.911Z,43.30
2022-12-08T19:24:35.051Z,38.50
2022-12-08T19:27:04.311Z,45.50
2022-12-08T19:29:32.352Z,43.10
2022-12-08T19:32:00.476Z,37.80
2022-12-08T19:34:28.457Z,42.60
2022-12-08T19:37:01.949Z,44.70
2022-12-08T19:40:02.152Z,46.90
2022-12-08T19:42:48.612Z,41.80
2022-12-08T19:45:21.793Z,42.50
2022-12-08T19:47:49.887Z,42.00
2022-12-08T19:50:36.178Z,45.30
2022-12-08T19:53:07.791Z,47.80
2022-12-08T19:56:03.199Z,58.90
2022-12-08T19:58:31.199Z,64.30
2022-12-08T20:00:59.209Z,66.40
2022-12-08T20:03:27.307Z,52.30
2022-12-08T20:05:55.438Z,58.20
2022-12-08T20:08:23.506Z,52.20
2022-12-08T20:10:51.724Z,38.60
2022-12-08T20:13:38.363Z,47.70
2022-12-08T20:16:06.850Z,51.80
2022-12-08T20:18:36.729Z,59.20
2022-12-08T20:21:08.511Z,55.60
2022-12-08T20:23:36.718Z,52.10
2022-12-08T20:26:08.513Z,49.50
2022-12-08T20:28:39.268Z,42.70
2022-12-08T20:31:07.437Z,40.20
2022-12-08T20:33:35.522Z,37.60
2022-12-08T20:36:05.817Z,36.20
2022-12-08T20:38:33.754Z,39.50
2022-12-08T20:41:01.791Z,42.70
2022-12-08T20:43:29.829Z,38.90
2022-12-08T20:45:58.385Z,38.60
2022-12-08T20:48:26.434Z,36.80
2022-12-08T20:50:55.086Z,39.70
2022-12-08T20:53:23.126Z,40.60
2022-12-08T20:55:51.193Z,43.90
2022-12-08T20:58:40.918Z,45.30
2022-12-08T21:01:11.358Z,45.10
2022-12-08T21:03:39.749Z,44.80
2022-12-08T21:06:08.916Z,45.10
2022-12-08T21:08:37.872Z,43.20
2022-12-08T21:11:06.645Z,39.60
2022-12-08T21:13:43.481Z,38.40
2022-12-08T21:16:17.184Z,39.30
2022-12-08T21:18:45.254Z,41.90
2022-12-08T21:21:15.201Z,40.20
2022-12-08T21:23:43.880Z,50.10
2022-12-08T21:26:15.362Z,68.90
2022-12-08T21:28:48.260Z,76.80
2022-12-08T21:31:19.067Z,78.30
2022-12-08T21:33:48.232Z,70.70
2022-12-08T21:36:18.819Z,55.60
2022-12-08T21:38:47.697Z,52.20
2022-12-08T21:41:41.996Z,50.20
2022-12-08T21:44:12.581Z,49.80
2022-12-08T21:46:41.644Z,55.40
2022-12-08T21:49:09.888Z,50.40
2022-12-08T21:51:42.287Z,52.00
2022-12-08T21:54:18.796Z,51.30
2022-12-08T21:56:48.819Z,65.40
2022-12-08T21:59:18.482Z,77.20
2022-12-08T22:01:46.934Z,81.70
2022-12-08T22:04:21.211Z,80.00
2022-12-08T22:06:49.732Z,85.10
2022-12-08T22:09:17.921Z,90.60
2022-12-08T22:11:46.068Z,86.80
2022-12-08T22:14:15.236Z,85.50
2022-12-08T22:16:44.399Z,82.10
2022-12-08T22:19:12.795Z,76.80
2022-12-08T22:21:41.545Z,79.90
2022-12-08T22:24:09.810Z,88.60
2022-12-08T22:26:37.864Z,91.10
2022-12-08T22:29:05.980Z,91.90
2022-12-08T22:31:34.124Z,79.60
2022-12-08T22:34:02.154Z,78.80
2022-12-08T22:36:30.173Z,70.00
2022-12-08T22:38:58.374Z,64.80
2022-12-08T22:41:26.405Z,84.80
2022-12-08T22:43:54.581Z,80.30
2022-12-08T22:46:24.989Z,84.00
2022-12-08T22:48:54.280Z,71.30
2022-12-08T22:51:22.456Z,75.30
2022-12-08T22:53:51.340Z,77.90
2022-12-08T22:56:20.158Z,83.00
2022-12-08T22:58:48.355Z,76.60
2022-12-08T23:01:23.109Z,70.30
2022-12-08T23:03:51.338Z,68.90
2022-12-08T23:06:19.994Z,63.10
2022-12-08T23:08:48.610Z,63.60
2022-12-08T23:11:17.271Z,63.70
2022-12-08T23:13:45.378Z,57.50
2022-12-08T23:16:13.385Z,60.30
2022-12-08T23:18:43.581Z,57.60
2022-12-08T23:21:15.538Z,55.00
2022-12-08T23:23:43.911Z,54.30
2022-12-08T23:26:24.805Z,52.50
2022-12-08T23:28:53.371Z,47.40
2022-12-08T23:31:25.470Z,47.60
2022-12-08T23:33:54.391Z,52.60
2022-12-08T23:36:26.255Z,50.10
2022-12-08T23:38:54.867Z,53.00
2022-12-08T23:41:23.044Z,51.10
2022-12-08T23:43:52.081Z,49.40
2022-12-08T23:46:22.071Z,52.80
2022-12-08T23:48:51.583Z,50.30
2022-12-08T23:51:20.064Z,48.40
2022-12-08T23:53:48.138Z,50.50
2022-12-08T23:56:17.975Z,53.30
2022-12-08T23:58:46.696Z,52.40
